createdAt,value
2018-09-02T00:00:06.986Z,6.75
2018-09-02T00:01:11.297Z,13.18
2018-09-02T00:02:15.423Z,9.85
2018-09-02T00:03:19.584Z,14.80
2018-09-02T00:04:23.807Z,12.98
2018-09-02T00:05:28.531Z,8.50
2018-09-02T00:06:32.716Z,11.00
2018-09-02T00:07:36.896Z,7.00
2018-09-02T00:08:41.078Z,8.20
2018-09-02T00:09:45.243Z,9.93
2018-09-02T00:10:49.391Z,14.50
2018-09-02T00:11:53.598Z,13.98
2018-09-02T00:12:57.767Z,7.50
2018-09-02T00:14:02.033Z,12.03
2018-09-02T00:15:06.194Z,10.38
2018-09-02T00:16:10.376Z,14.63
2018-09-02T00:17:14.553Z,15.95
2018-09-02T00:18:18.780Z,9.43
2018-09-02T00:19:22.942Z,12.00
2018-09-02T00:20:27.470Z,8.93
2018-09-02T00:21:31.632Z,10.05
2018-09-02T00:22:35.839Z,9.00
2018-09-02T00:23:40.019Z,15.98
2018-09-02T00:24:44.239Z,13.05
2018-09-02T00:25:48.456Z,12.47
2018-09-02T00:26:52.656Z,10.30
2018-09-02T00:27:56.966Z,10.98
2018-09-02T00:29:01.161Z,10.00
2018-09-02T00:30:05.787Z,9.43
2018-09-02T00:31:10.062Z,28.17
2018-09-02T00:32:14.267Z,18.95
2018-09-02T00:33:18.492Z,14.53
2018-09-02T00:34:22.784Z,14.47
2018-09-02T00:35:26.975Z,13.98
2018-09-02T00:36:31.274Z,7.85
2018-09-02T00:37:35.600Z,8.20
2018-09-02T00:38:39.760Z,13.65
2018-09-02T00:39:43.935Z,10.18
2018-09-02T00:40:48.291Z,11.75
2018-09-02T00:41:52.454Z,8.35
2018-09-02T00:42:56.701Z,10.68
2018-09-02T00:44:00.934Z,14.30
2018-09-02T00:45:05.460Z,9.28
2018-09-02T00:46:09.752Z,9.83
2018-09-02T00:47:13.958Z,10.70
2018-09-02T00:48:18.162Z,11.15
2018-09-02T00:49:22.331Z,8.70
2018-09-02T00:50:26.573Z,9.70
2018-09-02T00:51:30.996Z,11.22
2018-09-02T00:52:35.355Z,15.40
2018-09-02T00:53:39.743Z,7.62
2018-09-02T00:54:43.987Z,13.95
2018-09-02T00:55:48.175Z,11.28
2018-09-02T00:56:52.436Z,11.68
2018-09-02T00:57:56.819Z,9.18
2018-09-02T00:59:01.025Z,11.05
2018-09-02T01:00:06.023Z,8.30
2018-09-02T01:01:10.372Z,9.18
2018-09-02T01:02:14.675Z,7.80
2018-09-02T01:03:20.011Z,6.95
2018-09-02T01:04:24.191Z,11.88
2018-09-02T01:05:28.547Z,9.13
2018-09-02T01:06:32.725Z,10.03
2018-09-02T01:07:36.952Z,12.03
2018-09-02T01:08:41.233Z,8.75
2018-09-02T01:09:45.400Z,9.03
2018-09-02T01:10:50.018Z,8.15
2018-09-02T01:11:54.178Z,9.33
2018-09-02T01:12:58.527Z,9.83
2018-09-02T01:14:02.710Z,9.08
2018-09-02T01:15:07.196Z,10.95
2018-09-02T01:16:11.419Z,11.60
2018-09-02T01:17:15.611Z,7.30
2018-09-02T01:18:20.065Z,9.98
2018-09-02T01:19:24.254Z,7.08
2018-09-02T01:20:28.923Z,9.45
2018-09-02T01:21:33.179Z,8.60
2018-09-02T01:22:37.390Z,12.78
2018-09-02T01:23:41.603Z,9.53
2018-09-02T01:24:45.771Z,9.78
2018-09-02T01:25:49.948Z,9.20
2018-09-02T01:26:54.159Z,11.33
2018-09-02T01:27:58.369Z,7.87
2018-09-02T01:29:02.768Z,9.70
2018-09-02T01:30:07.252Z,7.70
2018-09-02T01:31:11.485Z,6.37
2018-09-02T01:32:15.871Z,10.05
2018-09-02T01:33:20.075Z,14.55
2018-09-02T01:34:24.267Z,13.30
2018-09-02T01:35:32.391Z,9.00
2018-09-02T01:36:36.592Z,14.13
2018-09-02T01:37:40.899Z,13.53
2018-09-02T01:38:45.081Z,8.83
2018-09-02T01:39:49.275Z,9.48
2018-09-02T01:40:53.451Z,8.75
2018-09-02T01:41:57.689Z,11.73
2018-09-02T01:43:01.940Z,9.83
2018-09-02T01:44:06.570Z,10.35
2018-09-02T01:45:10.815Z,9.30
2018-09-02T01:46:15.000Z,13.83
2018-09-02T01:47:19.232Z,8.55
2018-09-02T01:48:23.405Z,12.58
2018-09-02T01:49:27.825Z,15.08
2018-09-02T01:50:32.216Z,9.13
2018-09-02T01:51:36.416Z,12.63
2018-09-02T01:52:40.615Z,8.43
2018-09-02T01:53:44.826Z,9.63
2018-09-02T01:54:49.007Z,13.58
2018-09-02T01:55:53.230Z,9.40
2018-09-02T01:56:57.412Z,9.30
2018-09-02T01:58:01.653Z,11.00
2018-09-02T01:59:06.203Z,12.25
2018-09-02T02:00:10.432Z,6.75
2018-09-02T02:01:14.656Z,12.55
2018-09-02T02:02:18.844Z,12.63
2018-09-02T02:03:23.073Z,12.37
2018-09-02T02:04:30.036Z,12.15
2018-09-02T02:05:34.448Z,7.65
2018-09-02T02:06:38.755Z,9.03
2018-09-02T02:07:42.907Z,9.00
2018-09-02T02:08:47.166Z,12.25
2018-09-02T02:09:51.323Z,11.25
2018-09-02T02:10:55.779Z,13.60
2018-09-02T02:11:59.996Z,9.68
2018-09-02T02:13:04.322Z,10.15
2018-09-02T02:14:08.988Z,10.63
2018-09-02T02:15:13.168Z,8.05
2018-09-02T02:16:17.526Z,14.68
2018-09-02T02:17:21.779Z,15.93
2018-09-02T02:18:25.966Z,7.87
2018-09-02T02:19:30.554Z,12.37
2018-09-02T02:20:34.967Z,13.75
2018-09-02T02:21:39.265Z,14.40
2018-09-02T02:22:43.481Z,11.73
2018-09-02T02:23:47.719Z,11.05
2018-09-02T02:24:51.892Z,11.35
2018-09-02T02:25:56.291Z,18.40
2018-09-02T02:27:00.494Z,10.93
2018-09-02T02:28:04.695Z,11.25
2018-09-02T02:29:08.906Z,13.55
2018-09-02T02:30:13.114Z,9.20
2018-09-02T02:31:17.602Z,10.95
2018-09-02T02:32:21.776Z,8.50
2018-09-02T02:33:25.975Z,12.80
2018-09-02T02:34:30.169Z,14.47
2018-09-02T02:35:34.357Z,9.50
2018-09-02T02:36:38.575Z,10.93
2018-09-02T02:37:42.737Z,12.82
2018-09-02T02:38:46.935Z,13.58
2018-09-02T02:39:51.122Z,11.40
2018-09-02T02:40:55.344Z,10.63
2018-09-02T02:41:59.549Z,11.25
2018-09-02T02:43:03.784Z,15.48
2018-09-02T02:44:08.147Z,22.02
2018-09-02T02:45:12.392Z,12.63
2018-09-02T02:46:16.575Z,15.10
2018-09-02T02:47:20.804Z,10.85
2018-09-02T02:48:24.974Z,10.50
2018-09-02T02:49:29.272Z,15.25
2018-09-02T02:50:33.595Z,16.67
2018-09-02T02:51:37.781Z,14.68
2018-09-02T02:52:47.096Z,11.95
2018-09-02T02:53:51.398Z,9.93
2018-09-02T02:54:55.630Z,14.40
2018-09-02T02:55:59.871Z,28.90
2018-09-02T02:57:04.093Z,14.87
2018-09-02T02:58:08.259Z,14.90
2018-09-02T02:59:12.465Z,16.02
2018-09-02T03:00:16.693Z,16.95
2018-09-02T03:01:20.922Z,12.50
2018-09-02T03:02:25.100Z,12.47
2018-09-02T03:03:29.306Z,11.40
2018-09-02T03:04:33.471Z,11.30
2018-09-02T03:05:37.876Z,14.20
2018-09-02T03:06:42.095Z,12.63
2018-09-02T03:07:46.358Z,11.28
2018-09-02T03:08:50.559Z,19.82
2018-09-02T03:09:54.743Z,11.22
2018-09-02T03:10:59.099Z,12.10
2018-09-02T03:12:03.287Z,12.95
2018-09-02T03:13:07.669Z,12.65
2018-09-02T03:14:11.873Z,13.18
2018-09-02T03:15:16.181Z,12.68
2018-09-02T03:16:20.485Z,12.90
2018-09-02T03:17:24.688Z,10.80
2018-09-02T03:18:28.896Z,14.90
2018-09-02T03:19:33.328Z,12.82
2018-09-02T03:20:37.897Z,12.18
2018-09-02T03:21:42.104Z,11.05
2018-09-02T03:22:46.346Z,10.15
2018-09-02T03:23:50.495Z,20.23
2018-09-02T03:24:54.669Z,12.70
2018-09-02T03:25:58.967Z,11.93
2018-09-02T03:27:03.523Z,14.33
2018-09-02T03:28:07.667Z,15.13
2018-09-02T03:29:11.889Z,16.20
2018-09-02T03:30:16.027Z,12.73
2018-09-02T03:31:20.173Z,12.98
2018-09-02T03:32:24.439Z,11.57
2018-09-02T03:33:28.802Z,12.90
2018-09-02T03:34:32.951Z,11.38
2018-09-02T03:35:37.116Z,12.85
2018-09-02T03:36:41.291Z,10.10
2018-09-02T03:37:45.532Z,16.07
2018-09-02T03:38:49.716Z,9.95
2018-09-02T03:39:54.161Z,9.75
2018-09-02T03:40:58.311Z,18.45
2018-09-02T03:42:02.534Z,12.75
2018-09-02T03:43:06.750Z,14.90
2018-09-02T03:44:11.063Z,14.30
2018-09-02T03:45:15.226Z,15.20
2018-09-02T03:46:19.410Z,11.45
2018-09-02T03:47:23.578Z,14.50
2018-09-02T03:48:27.800Z,13.72
2018-09-02T03:49:31.950Z,10.72
2018-09-02T03:50:36.121Z,15.40
2018-09-02T03:51:40.262Z,10.95
2018-09-02T03:52:44.994Z,18.65
2018-09-02T03:53:49.190Z,12.37
2018-09-02T03:54:53.404Z,12.78
2018-09-02T03:55:57.946Z,16.00
2018-09-02T03:57:02.156Z,15.55
2018-09-02T03:58:06.533Z,12.85
2018-09-02T03:59:10.752Z,14.68
2018-09-02T04:00:15.147Z,15.32
2018-09-02T04:01:19.471Z,13.40
2018-09-02T04:02:23.634Z,13.03
2018-09-02T04:03:28.070Z,18.02
2018-09-02T04:04:32.377Z,13.22
2018-09-02T04:05:36.685Z,14.90
2018-09-02T04:06:40.957Z,14.10
2018-09-02T04:07:45.116Z,13.68
2018-09-02T04:08:49.524Z,17.45
2018-09-02T04:09:53.866Z,17.80
2018-09-02T04:10:58.222Z,13.95
2018-09-02T04:12:02.347Z,14.75
2018-09-02T04:13:06.692Z,13.43
2018-09-02T04:14:10.851Z,18.80
2018-09-02T04:15:15.055Z,16.57
2018-09-02T04:16:19.268Z,18.95
2018-09-02T04:17:23.452Z,13.88
2018-09-02T04:18:27.760Z,15.68
2018-09-02T04:19:31.911Z,20.68
2018-09-02T04:20:36.879Z,12.82
2018-09-02T04:21:41.698Z,18.32
2018-09-02T04:22:45.899Z,19.67
2018-09-02T04:23:50.151Z,12.28
2018-09-02T04:24:54.336Z,14.00
2018-09-02T04:25:58.562Z,18.87
2018-09-02T04:27:02.754Z,18.32
2018-09-02T04:28:07.004Z,16.20
2018-09-02T04:29:11.246Z,16.37
2018-09-02T04:30:15.438Z,15.32
2018-09-02T04:31:19.705Z,23.52
2018-09-02T04:32:23.866Z,12.50
2018-09-02T04:33:28.070Z,17.40
2018-09-02T04:34:32.252Z,16.45
2018-09-02T04:35:36.423Z,14.65
2018-09-02T04:36:40.658Z,13.00
2018-09-02T04:37:44.831Z,19.77
2018-09-02T04:38:49.000Z,14.25
2018-09-02T04:39:53.367Z,22.70
2018-09-02T04:40:57.566Z,15.90
2018-09-02T04:42:01.912Z,15.58
2018-09-02T04:43:06.279Z,19.45
2018-09-02T04:44:10.471Z,14.98
2018-09-02T04:45:14.741Z,19.17
2018-09-02T04:46:18.990Z,14.18
2018-09-02T04:47:23.163Z,16.62
2018-09-02T04:48:27.347Z,13.65
2018-09-02T04:49:31.496Z,20.17
2018-09-02T04:50:35.731Z,16.00
2018-09-02T04:51:39.989Z,16.07
2018-09-02T04:52:44.194Z,18.62
2018-09-02T04:53:48.654Z,18.02
2018-09-02T04:54:52.807Z,20.08
2018-09-02T04:55:57.301Z,14.33
2018-09-02T04:57:01.440Z,17.48
2018-09-02T04:58:05.852Z,16.52
2018-09-02T04:59:10.052Z,17.30
2018-09-02T05:00:14.269Z,15.45
2018-09-02T05:01:18.425Z,16.90
2018-09-02T05:02:22.611Z,18.00
2018-09-02T05:03:26.814Z,16.85
2018-09-02T05:04:31.182Z,19.35
2018-09-02T05:05:35.447Z,13.85
2018-09-02T05:06:40.028Z,19.37
2018-09-02T05:07:44.182Z,23.20
2018-09-02T05:08:48.371Z,21.15
2018-09-02T05:09:52.556Z,23.05
2018-09-02T05:10:56.894Z,17.30
2018-09-02T05:12:01.058Z,17.75
2018-09-02T05:13:05.234Z,22.27
2018-09-02T05:14:09.918Z,12.58
2018-09-02T05:15:14.259Z,19.85
2018-09-02T05:16:18.422Z,22.95
2018-09-02T05:17:24.055Z,18.07
2018-09-02T05:18:28.266Z,23.42
2018-09-02T05:19:32.510Z,15.55
2018-09-02T05:20:36.909Z,16.00
2018-09-02T05:21:41.179Z,17.60
2018-09-02T05:22:45.348Z,18.70
2018-09-02T05:23:49.701Z,19.52
2018-09-02T05:24:53.883Z,17.85
2018-09-02T05:25:58.050Z,21.05
2018-09-02T05:27:02.625Z,20.10
2018-09-02T05:28:07.163Z,21.48
2018-09-02T05:29:11.307Z,21.50
2018-09-02T05:30:15.499Z,19.40
2018-09-02T05:31:19.696Z,18.75
2018-09-02T05:32:24.030Z,19.48
2018-09-02T05:33:28.203Z,23.52
2018-09-02T05:34:32.571Z,19.50
2018-09-02T05:35:36.738Z,21.12
2018-09-02T05:36:40.982Z,22.73
2018-09-02T05:37:45.319Z,21.60
2018-09-02T05:38:49.597Z,19.77
2018-09-02T05:39:53.801Z,21.37
2018-09-02T05:40:58.039Z,23.12
2018-09-02T05:42:02.304Z,23.12
2018-09-02T05:43:06.514Z,24.72
2018-09-02T05:44:10.837Z,20.62
2018-09-02T05:45:14.963Z,22.73
2018-09-02T05:46:19.311Z,20.12
2018-09-02T05:47:23.472Z,22.17
2018-09-02T05:48:27.620Z,18.32
2018-09-02T05:49:31.800Z,23.18
2018-09-02T05:50:36.063Z,19.60
2018-09-02T05:51:40.311Z,19.67
2018-09-02T05:52:44.483Z,20.17
2018-09-02T05:53:48.671Z,21.12
2018-09-02T05:54:52.846Z,18.25
2018-09-02T05:55:57.030Z,26.40
2018-09-02T05:57:01.529Z,23.52
2018-09-02T05:58:05.804Z,19.92
2018-09-02T05:59:09.948Z,26.07
2018-09-02T06:00:14.240Z,22.50
2018-09-02T06:01:18.509Z,18.92
2018-09-02T06:02:24.820Z,25.55
2018-09-02T06:03:29.100Z,25.70
2018-09-02T06:04:33.259Z,18.70
2018-09-02T06:05:37.491Z,22.07
2018-09-02T06:06:41.631Z,18.77
2018-09-02T06:07:45.938Z,18.25
2018-09-02T06:08:50.247Z,19.42
2018-09-02T06:09:54.800Z,21.77
2018-09-02T06:10:59.029Z,20.82
2018-09-02T06:12:03.248Z,19.12
2018-09-02T06:13:07.960Z,21.82
2018-09-02T06:14:12.184Z,20.65
2018-09-02T06:15:16.353Z,26.62
2018-09-02T06:16:20.563Z,19.70
2018-09-02T06:17:24.831Z,18.75
2018-09-02T06:18:28.927Z,21.97
2018-09-02T06:19:33.117Z,20.32
2018-09-02T06:20:37.263Z,24.70
2018-09-02T06:21:41.764Z,20.35
2018-09-02T06:22:45.948Z,20.05
2018-09-02T06:23:50.204Z,17.48
2018-09-02T06:24:54.394Z,21.00
2018-09-02T06:25:58.717Z,23.10
2018-09-02T06:27:02.965Z,24.90
2018-09-02T06:28:07.242Z,23.10
2018-09-02T06:29:11.899Z,23.07
2018-09-02T06:30:16.531Z,26.55
2018-09-02T06:31:20.526Z,19.23
2018-09-02T06:32:24.812Z,23.55
2018-09-02T06:33:29.003Z,22.65
2018-09-02T06:34:33.994Z,22.30
2018-09-02T06:35:38.216Z,21.42
2018-09-02T06:36:42.375Z,22.42
2018-09-02T06:37:46.578Z,23.60
2018-09-02T06:38:50.726Z,22.15
2018-09-02T06:39:54.950Z,22.30
2018-09-02T06:40:59.099Z,24.90
2018-09-02T06:42:03.372Z,21.48
2018-09-02T06:43:07.633Z,23.60
2018-09-02T06:44:16.297Z,22.90
2018-09-02T06:45:20.807Z,22.77
2018-09-02T06:46:24.982Z,21.37
2018-09-02T06:47:29.262Z,21.77
2018-09-02T06:48:33.492Z,26.82
2018-09-02T06:49:37.784Z,23.07
2018-09-02T06:50:42.093Z,19.52
2018-09-02T06:51:46.308Z,22.20
2018-09-02T06:52:50.707Z,25.43
2018-09-02T06:53:55.048Z,20.10
2018-09-02T06:54:59.227Z,21.75
2018-09-02T06:56:03.525Z,21.70
2018-09-02T06:57:07.743Z,23.30
2018-09-02T06:58:12.360Z,28.45
2018-09-02T06:59:16.531Z,22.60
2018-09-02T07:00:20.948Z,21.17
2018-09-02T07:01:25.142Z,23.38
2018-09-02T07:02:29.302Z,22.45
2018-09-02T07:03:33.616Z,21.23
2018-09-02T07:04:37.903Z,29.40
2018-09-02T07:05:42.795Z,24.32
2018-09-02T07:06:47.318Z,28.27
2018-09-02T07:07:51.467Z,23.83
2018-09-02T07:08:55.650Z,26.40
2018-09-02T07:09:59.808Z,26.12
2018-09-02T07:11:04.141Z,23.42
2018-09-02T07:12:08.321Z,23.75
2018-09-02T07:13:12.703Z,20.50
2018-09-02T07:14:16.980Z,23.42
2018-09-02T07:15:21.143Z,21.70
2018-09-02T07:16:25.302Z,27.07
2018-09-02T07:17:29.514Z,19.75
2018-09-02T07:18:33.820Z,21.80
2018-09-02T07:19:37.996Z,20.55
2018-09-02T07:20:42.185Z,22.80
2018-09-02T07:21:46.555Z,20.02
2018-09-02T07:22:50.806Z,29.75
2018-09-02T07:23:54.961Z,17.85
2018-09-02T07:24:59.159Z,19.10
2018-09-02T07:26:03.348Z,19.67
2018-09-02T07:27:07.657Z,20.35
2018-09-02T07:28:11.887Z,21.82
2018-09-02T07:29:16.139Z,19.07
2018-09-02T07:30:20.381Z,17.27
2018-09-02T07:31:24.710Z,22.87
2018-09-02T07:32:29.294Z,19.80
2018-09-02T07:33:33.492Z,21.68
2018-09-02T07:34:37.844Z,21.20
2018-09-02T07:35:42.031Z,18.48
2018-09-02T07:36:46.276Z,20.75
2018-09-02T07:37:50.508Z,20.25
2018-09-02T07:38:54.719Z,18.73
2018-09-02T07:39:59.158Z,19.95
2018-09-02T07:41:03.360Z,21.37
2018-09-02T07:42:07.545Z,23.85
2018-09-02T07:43:11.875Z,17.70
2018-09-02T07:44:16.141Z,21.37
2018-09-02T07:45:20.840Z,17.92
2018-09-02T07:46:25.026Z,20.12
2018-09-02T07:47:29.224Z,13.98
2018-09-02T07:48:33.400Z,17.00
2018-09-02T07:49:37.628Z,17.80
2018-09-02T07:50:41.827Z,20.10
2018-09-02T07:51:46.024Z,13.08
2018-09-02T07:52:50.185Z,19.37
2018-09-02T07:53:54.392Z,16.87
2018-09-02T07:54:58.599Z,20.90
2018-09-02T07:56:02.805Z,18.77
2018-09-02T07:57:07.002Z,16.07
2018-09-02T07:58:11.229Z,16.55
2018-09-02T07:59:15.622Z,14.55
2018-09-02T08:00:19.831Z,14.87
2018-09-02T08:01:24.047Z,12.93
2018-09-02T08:02:28.374Z,18.50
2018-09-02T08:03:32.560Z,16.20
2018-09-02T08:04:36.745Z,17.25
2018-09-02T08:05:41.159Z,17.00
2018-09-02T08:06:45.361Z,13.60
2018-09-02T08:07:49.570Z,16.87
2018-09-02T08:08:53.743Z,15.75
2018-09-02T08:09:57.926Z,12.95
2018-09-02T08:11:02.124Z,11.63
2018-09-02T08:12:06.586Z,12.80
2018-09-02T08:13:10.916Z,12.15
2018-09-02T08:14:15.127Z,12.47
2018-09-02T08:15:19.315Z,12.78
2018-09-02T08:16:23.542Z,10.45
2018-09-02T08:17:27.724Z,14.40
2018-09-02T08:18:32.047Z,15.35
2018-09-02T08:19:36.285Z,14.15
2018-09-02T08:20:40.453Z,11.00
2018-09-02T08:21:44.763Z,10.10
2018-09-02T08:22:49.223Z,14.30
2018-09-02T08:23:53.460Z,11.48
2018-09-02T08:24:57.671Z,13.58
2018-09-02T08:26:01.877Z,12.98
2018-09-02T08:27:06.268Z,9.13
2018-09-02T08:28:10.453Z,8.20
2018-09-02T08:29:14.611Z,7.60
2018-09-02T08:30:18.787Z,7.65
2018-09-02T08:31:23.139Z,6.55
2018-09-02T08:32:27.414Z,9.45
2018-09-02T08:33:31.588Z,6.87
2018-09-02T08:34:35.749Z,5.60
2018-09-02T08:35:40.076Z,6.78
2018-09-02T08:36:44.240Z,9.90
2018-09-02T08:37:48.597Z,8.50
2018-09-02T08:38:52.839Z,7.40
2018-09-02T08:39:56.998Z,4.97
2018-09-02T08:41:01.203Z,5.62
2018-09-02T08:42:05.592Z,5.00
2018-09-02T08:43:09.794Z,7.37
2018-09-02T08:44:14.025Z,3.75
2018-09-02T08:45:18.159Z,5.60
2018-09-02T08:46:22.452Z,6.00
2018-09-02T08:47:26.827Z,6.17
2018-09-02T08:48:31.018Z,8.95
2018-09-02T08:49:36.847Z,6.47
2018-09-02T08:50:41.255Z,7.10
2018-09-02T08:51:45.408Z,6.15
2018-09-02T08:52:49.588Z,7.90
2018-09-02T08:53:53.876Z,9.05
2018-09-02T08:54:58.384Z,10.63
2018-09-02T08:56:02.600Z,5.72
2018-09-02T08:57:07.386Z,7.10
2018-09-02T08:58:11.584Z,7.50
2018-09-02T08:59:15.824Z,7.28
2018-09-02T09:00:20.112Z,5.53
2018-09-02T09:01:24.332Z,6.75
2018-09-02T09:02:28.856Z,7.53
2018-09-02T09:03:33.031Z,5.28
2018-09-02T09:04:37.428Z,5.97
2018-09-02T09:05:41.579Z,8.83
2018-09-02T09:06:45.785Z,3.92
2018-09-02T09:07:50.129Z,6.20
2018-09-02T09:08:54.735Z,6.47
2018-09-02T09:09:58.787Z,6.40
2018-09-02T09:11:02.996Z,7.58
2018-09-02T09:12:07.232Z,4.83
2018-09-02T09:13:11.391Z,6.53
2018-09-02T09:14:15.568Z,6.85
2018-09-02T09:15:19.818Z,7.30
2018-09-02T09:16:24.023Z,6.60
2018-09-02T09:17:28.199Z,5.55
2018-09-02T09:18:32.639Z,4.62
2018-09-02T09:19:36.823Z,6.62
2018-09-02T09:20:41.130Z,6.72
2018-09-02T09:21:45.364Z,5.85
2018-09-02T09:22:49.874Z,6.28
2018-09-02T09:23:54.037Z,5.05
2018-09-02T09:24:58.238Z,5.95
2018-09-02T09:26:02.442Z,5.05
2018-09-02T09:27:06.657Z,4.75
2018-09-02T09:28:10.834Z,6.30
2018-09-02T09:29:15.003Z,6.10
2018-09-02T09:30:19.179Z,4.28
2018-09-02T09:31:23.459Z,5.30
2018-09-02T09:32:27.667Z,8.25
2018-09-02T09:33:31.863Z,2.87
2018-09-02T09:34:36.512Z,4.20
2018-09-02T09:35:40.685Z,3.42
2018-09-02T09:36:44.875Z,5.92
2018-09-02T09:37:49.047Z,3.62
2018-09-02T09:38:53.402Z,4.80
2018-09-02T09:39:57.723Z,4.70
2018-09-02T09:41:01.879Z,5.30
2018-09-02T09:42:06.100Z,5.72
2018-09-02T09:43:10.324Z,7.55
2018-09-02T09:44:14.497Z,4.00
2018-09-02T09:45:18.695Z,5.10
2018-09-02T09:46:22.889Z,6.58
2018-09-02T09:47:27.201Z,7.03
2018-09-02T09:48:31.347Z,3.67
2018-09-02T09:49:35.656Z,5.70
2018-09-02T09:50:39.815Z,7.53
2018-09-02T09:51:44.266Z,6.90
2018-09-02T09:52:48.463Z,4.12
2018-09-02T09:53:52.626Z,5.05
2018-09-02T09:54:56.801Z,3.83
2018-09-02T09:56:01.047Z,8.23
2018-09-02T09:57:05.240Z,5.15
2018-09-02T09:58:09.661Z,4.78
2018-09-02T09:59:13.810Z,8.98
2018-09-02T10:00:23.198Z,4.80
2018-09-02T10:01:27.556Z,3.52
2018-09-02T10:02:31.752Z,3.70
2018-09-02T10:03:36.008Z,3.98
2018-09-02T10:04:40.281Z,5.28
2018-09-02T10:05:44.471Z,3.98
2018-09-02T10:06:48.655Z,3.30
2018-09-02T10:07:52.843Z,4.60
2018-09-02T10:08:57.062Z,4.03
2018-09-02T10:10:01.243Z,6.12
2018-09-02T10:11:05.426Z,4.15
2018-09-02T10:12:09.612Z,5.28
2018-09-02T10:13:13.811Z,7.28
2018-09-02T10:14:18.026Z,3.40
2018-09-02T10:15:22.231Z,5.33
2018-09-02T10:16:26.578Z,3.02
2018-09-02T10:17:30.781Z,4.42
2018-09-02T10:18:34.987Z,3.47
2018-09-02T10:19:39.295Z,3.92
2018-09-02T10:20:43.427Z,3.65
2018-09-02T10:21:47.732Z,4.00
2018-09-02T10:22:52.422Z,4.80
2018-09-02T10:23:56.580Z,3.35
2018-09-02T10:25:00.938Z,4.00
2018-09-02T10:26:05.596Z,9.68
2018-09-02T10:27:09.779Z,3.87
2018-09-02T10:28:13.995Z,8.65
2018-09-02T10:29:18.191Z,6.12
2018-09-02T10:30:22.430Z,6.00
2018-09-02T10:31:26.860Z,4.28
2018-09-02T10:32:31.126Z,4.17
2018-09-02T10:33:35.300Z,4.15
2018-09-02T10:34:39.498Z,2.85
2018-09-02T10:35:43.731Z,4.05
2018-09-02T10:36:47.968Z,9.45
2018-09-02T10:37:52.176Z,5.50
2018-09-02T10:38:56.420Z,3.45
2018-09-02T10:40:00.728Z,2.40
2018-09-02T10:41:04.943Z,6.08
2018-09-02T10:42:09.110Z,4.30
2018-09-02T10:43:13.344Z,2.20
2018-09-02T10:44:17.606Z,3.58
2018-09-02T10:45:21.893Z,5.28
2018-09-02T10:46:26.104Z,3.70
2018-09-02T10:47:30.292Z,4.20
2018-09-02T10:48:34.575Z,2.80
2018-09-02T10:49:38.905Z,4.37
2018-09-02T10:50:43.088Z,4.42
2018-09-02T10:51:47.261Z,3.10
2018-09-02T10:52:51.514Z,4.42
2018-09-02T10:53:55.659Z,4.28
2018-09-02T10:54:59.855Z,4.95
2018-09-02T10:56:04.032Z,5.47
2018-09-02T10:57:08.220Z,4.00
2018-09-02T10:58:12.382Z,4.28
2018-09-02T10:59:16.549Z,2.72
2018-09-02T11:00:20.742Z,5.25
2018-09-02T11:01:24.910Z,3.17
2018-09-02T11:02:29.121Z,3.30
2018-09-02T11:03:33.266Z,3.47
2018-09-02T11:04:37.444Z,3.22
2018-09-02T11:05:41.649Z,3.33
2018-09-02T11:06:45.782Z,3.72
2018-09-02T11:07:50.326Z,3.58
2018-09-02T11:08:54.825Z,6.22
2018-09-02T11:09:58.970Z,3.37
2018-09-02T11:11:03.150Z,5.87
2018-09-02T11:12:07.496Z,4.80
2018-09-02T11:13:11.682Z,6.37
2018-09-02T11:14:15.835Z,3.05
2018-09-02T11:15:20.008Z,3.80
2018-09-02T11:16:24.321Z,4.87
2018-09-02T11:17:28.795Z,5.83
2018-09-02T11:18:33.005Z,3.22
2018-09-02T11:19:37.240Z,5.20
2018-09-02T11:20:41.394Z,5.28
2018-09-02T11:21:45.558Z,4.35
2018-09-02T11:22:49.748Z,3.87
2018-09-02T11:23:54.364Z,5.62
2018-09-02T11:24:58.483Z,4.67
2018-09-02T11:26:02.674Z,6.28
2018-09-02T11:27:07.300Z,5.00
2018-09-02T11:28:11.482Z,5.50
2018-09-02T11:29:15.804Z,3.50
2018-09-02T11:30:19.943Z,6.83
2018-09-02T11:31:24.107Z,5.55
2018-09-02T11:32:28.246Z,4.75
2018-09-02T11:33:32.433Z,4.80
2018-09-02T11:34:36.595Z,8.35
2018-09-02T11:35:40.757Z,4.90
2018-09-02T11:36:44.928Z,4.33
2018-09-02T11:37:49.126Z,4.42
2018-09-02T11:38:53.315Z,4.33
2018-09-02T11:39:57.545Z,4.58
2018-09-02T11:41:01.749Z,5.92
2018-09-02T11:42:05.964Z,5.75
2018-09-02T11:43:10.100Z,3.67
2018-09-02T11:44:14.238Z,4.22
2018-09-02T11:45:18.500Z,9.08
2018-09-02T11:46:22.622Z,5.08
2018-09-02T11:47:26.871Z,6.03
2018-09-02T11:48:31.003Z,4.25
2018-09-02T11:49:35.142Z,6.53
2018-09-02T11:50:39.413Z,2.83
2018-09-02T11:51:43.587Z,20.85
2018-09-02T11:52:47.952Z,3.27
2018-09-02T11:53:52.102Z,5.08
2018-09-02T11:54:56.254Z,3.00
2018-09-02T11:56:00.458Z,7.25
2018-09-02T11:57:04.625Z,3.85
2018-09-02T11:58:08.826Z,4.55
2018-09-02T11:59:13.049Z,3.80
2018-09-02T12:00:17.226Z,4.30
2018-09-02T12:01:21.447Z,5.50
2018-09-02T12:02:25.649Z,5.35
2018-09-02T12:03:29.954Z,6.08
2018-09-02T12:04:34.293Z,4.37
2018-09-02T12:05:38.410Z,5.55
2018-09-02T12:06:42.574Z,3.12
2018-09-02T12:07:46.781Z,4.92
2018-09-02T12:08:50.894Z,5.78
2018-09-02T12:09:55.226Z,3.30
2018-09-02T12:10:59.362Z,2.77
2018-09-02T12:12:03.596Z,5.08
2018-09-02T12:13:07.731Z,4.67
2018-09-02T12:14:11.880Z,6.62
2018-09-02T12:15:16.028Z,5.03
2018-09-02T12:16:20.153Z,4.90
2018-09-02T12:17:24.342Z,3.95
2018-09-02T12:18:28.496Z,3.93
2018-09-02T12:19:32.663Z,3.50
2018-09-02T12:20:36.826Z,4.55
2018-09-02T12:21:41.371Z,4.53
2018-09-02T12:22:45.538Z,4.12
2018-09-02T12:23:49.696Z,4.65
2018-09-02T12:24:54.298Z,7.17
2018-09-02T12:25:58.467Z,4.85
2018-09-02T12:27:02.650Z,5.35
2018-09-02T12:28:06.834Z,4.60
2018-09-02T12:29:10.991Z,3.72
2018-09-02T12:30:15.139Z,5.10
2018-09-02T12:31:19.359Z,6.00
2018-09-02T12:32:23.595Z,5.22
2018-09-02T12:33:27.788Z,4.55
2018-09-02T12:34:32.009Z,7.55
2018-09-02T12:35:36.294Z,5.50
2018-09-02T12:36:40.464Z,4.30
2018-09-02T12:37:44.619Z,3.77
2018-09-02T12:38:48.908Z,5.67
2018-09-02T12:39:53.074Z,4.55
2018-09-02T12:40:57.304Z,6.60
2018-09-02T12:42:01.431Z,4.17
2018-09-02T12:43:05.647Z,3.95
2018-09-02T12:44:09.776Z,4.83
2018-09-02T12:45:14.159Z,4.97
2018-09-02T12:46:18.279Z,5.87
2018-09-02T12:47:22.418Z,5.43
2018-09-02T12:48:26.575Z,3.30
2018-09-02T12:49:30.779Z,3.17
2018-09-02T12:50:34.945Z,5.30
2018-09-02T12:51:39.135Z,5.70
2018-09-02T12:52:43.290Z,3.70
2018-09-02T12:53:47.405Z,4.08
2018-09-02T12:54:51.598Z,6.95
2018-09-02T12:55:55.754Z,4.83
2018-09-02T12:57:00.023Z,4.85
2018-09-02T12:58:04.447Z,3.27
2018-09-02T12:59:08.587Z,4.83
2018-09-02T13:00:13.129Z,7.87
2018-09-02T13:01:17.650Z,4.00
2018-09-02T13:02:21.748Z,4.80
2018-09-02T13:03:25.884Z,3.40
2018-09-02T13:04:30.003Z,6.37
2018-09-02T13:05:34.198Z,4.42
2018-09-02T13:06:38.436Z,5.00
2018-09-02T13:07:42.582Z,8.43
2018-09-02T13:08:46.738Z,3.22
2018-09-02T13:09:50.883Z,4.80
2018-09-02T13:10:55.085Z,5.22
2018-09-02T13:11:59.243Z,4.27
2018-09-02T13:13:03.423Z,6.72
2018-09-02T13:14:07.698Z,5.63
2018-09-02T13:15:11.875Z,6.40
2018-09-02T13:16:16.049Z,3.20
2018-09-02T13:17:20.210Z,3.92
2018-09-02T13:18:24.370Z,6.12
2018-09-02T13:19:28.518Z,5.87
2018-09-02T13:20:32.666Z,3.50
2018-09-02T13:21:36.859Z,7.62
2018-09-02T13:22:40.975Z,3.60
2018-09-02T13:23:45.148Z,5.10
2018-09-02T13:24:49.257Z,5.87
2018-09-02T13:25:53.618Z,5.70
2018-09-02T13:26:57.806Z,4.67
2018-09-02T13:28:01.939Z,3.53
2018-09-02T13:29:06.145Z,3.33
2018-09-02T13:30:11.338Z,4.45
2018-09-02T13:31:15.481Z,4.73
2018-09-02T13:32:20.146Z,4.53
2018-09-02T13:33:24.314Z,6.67
2018-09-02T13:34:28.473Z,5.63
2018-09-02T13:35:32.615Z,5.20
2018-09-02T13:36:36.823Z,3.00
2018-09-02T13:37:40.991Z,4.80
2018-09-02T13:38:45.135Z,5.63
2018-09-02T13:39:49.318Z,4.60
2018-09-02T13:40:52.464Z,5.20
2018-09-02T13:41:56.362Z,5.23
2018-09-02T13:43:00.738Z,4.07
2018-09-02T13:44:05.195Z,6.10
2018-09-02T13:45:09.606Z,7.10
2018-09-02T13:46:13.760Z,4.50
2018-09-02T13:47:17.954Z,4.87
2018-09-02T13:48:22.315Z,4.10
2018-09-02T13:49:26.423Z,4.13
2018-09-02T13:50:30.672Z,3.37
2018-09-02T13:51:34.973Z,3.50
2018-09-02T13:52:39.060Z,4.30
2018-09-02T13:53:43.291Z,5.00
2018-09-02T13:54:47.548Z,3.90
2018-09-02T13:55:51.682Z,3.53
2018-09-02T13:56:55.851Z,6.97
2018-09-02T13:57:59.999Z,3.60
2018-09-02T13:59:04.210Z,5.42
2018-09-02T14:00:08.410Z,4.00